Pantelleria, Italia

02:44 AM CET del 02 Febbraio 2015 (GMT +0100)
Kelibia | Change Station
CLOSE
Current Station
Aeroporto
Location: Kelibia,
Altitudine: 98 ft
Stazioni meteo nelle vicinanze
Avvisi attivi: Wind

Alt. 98 ft 36.85 °N, 11.08 °E | Updated 44 minutes ago

Clear
Sereno
43 °F
Sembra 38 °F
N
8
Vento Variabile Vento da Variabile

Oggi
Massima -- | Minima -- °F
--% Possibilità di precip.
Ieri
Massima -- | Minima -- °F
Precip. -- in
7:13 AM 5:38 PM
Gobba a ponente, 97% visible
Pressione 29.77 in
Visibilità -9999.0 miglia
Nuvole
Raffreddamento del vento 38 °F
Punto di rugiada 41 °F
Umidità 93%
Piovosità 0.00 in
Spessore del manto nevoso Non disponibile.
Raggi UV Non disponibile.
Polline Non disponibile.
Qualità dell'aria Non disponibile.
Flu Activity Non disponibile.
METAR DTTL 020100Z AUTO VRB07KT NCD 06/05 Q1008

More Conditions Fewer Conditions

Pressione 29.77 in
Visibilità -9999.0 miglia
Nuvole
Raffreddamento del vento 38 °F
Punto di rugiada 41 °F
Umidità 93%
Piovosità 0.00 in
Spessore del manto nevoso Non disponibile.
Raggi UV Non disponibile.
Polline Non disponibile.
Qualità dell'aria Non disponibile.
Flu Activity Non disponibile.
METAR DTTL 020100Z AUTO VRB07KT NCD 06/05 Q1008

More Conditions Fewer Conditions

10-Day Weather Forecast

Almanac

Astronomia

Feb. 02, 2015 Alba Tramonto
Ora attuale
Crepuscolo civile
Crepuscolo nautico
Crepuscolo astronomico
Luna
Estensione della luce visibile
Lunghezza del giorno
Tomorrow will be .
, % of the Moon is Illuminated

Gli estremi di oggi

Massime Regione Minime Regione

Community

WunderPhotos

Upload Photos

1,792,652 foto caricate!

WunderBlogs® & News

Nearby

Qualità dell'aria

  Qualità dell'aria Indice AQ Inquinante
Not available.

Profondità neve

Stazione Profondità Altitudine

Attività sismica

Città  Distanza Mag. Data & Ora
Minimo Magnitudo Mostrato è 2.5.

Temperature delle acque costiere

Località Temperatura

Stazioni meteo nelle vicinanze